Aeroporto :
LOGIN :

Iscrizione | Disclaimer

   EN    FR    IT 

 










Sommario :    VFR   VFR Marginale   IFR   IFR Intensivo   IFR Molto Intensivo
Visibilità : 
Base nubi : 
>= 8 km
>= 3000ft
5 / 8 km
1000 / 3000 ft
1500m / 5 km
500 / 1000 ft
800 / 1500m
200 / 500 ft
< 800m
< 200 ft
Simboli :   Temporali  Nebbia  Neve Forte  Precipitazioni Forti  Vento > 20 kt
SIGMETs :   Varie  Temporali  Ghiacco  Turbolenza  Onda orograficha  Ceneri Vulcaniche






- Altitudine del aeroporto : 424 ft
- Codice IATA : QGY


LHPR - Györ Per

ULTIMO METAR :
  • 232015Z AUTO 12012KT CAVOK 11/06 Q1001

METARs OBSOLETI :
  • 231945Z AUTO 12011KT CAVOK 10/06 Q1001
  • 231915Z AUTO 13009KT CAVOK 10/07 Q1001
  • 231845Z AUTO 13012KT CAVOK 10/07 Q1001
  • 231815Z AUTO 13012KT CAVOK 11/07 Q1001
  • 231745Z AUTO 13013KT CAVOK 10/07 Q1001 NOSIG
  • 231715Z AUTO 12011KT CAVOK 10/07 Q1001 NOSIG
  • 231645Z AUTO 12010KT CAVOK 10/07 Q1002 NOSIG
  • 231615Z AUTO 12010KT CAVOK 10/07 Q1002 NOSIG
  • 231545Z AUTO 11010KT CAVOK 10/07 Q1002 NOSIG

TAF TAF LHPR
Valido dal 23 a 18 ore il 24 a 03 ore UTC


231715Z 2318/2403 13012KT CAVOK
BECMG 2320/2323 19012KT



MetMap, La meteo Aeronautica in un colpo d'occhio ! - Copyright ORBIFLY Dicembre 2007 - Disclaimer

ORBIFLY MET'MAP TEAM :

Programmazione e sviluppo : Alexandra Zaïnal
Concezione : Baudouin d'Aumeries
Supporto tecnico e logistico : Manuel Goepfert
Aiuto : Marc-Olivier Méhu
Aiuto per la traduzione : Arnaldo La Scala




FONTI E CREDITI :

   NOAA